Aviation Digital Data Service (ADDS)

Output produced by TAFs form (0338 UTC 26 October 2014)
found at http://www.aviationweather.gov/adds/tafs/
 
KBJC 260248Z 31004KT 30SM SKC 20/M07 A3005
KBJC 252329Z 2600/2624 08007KT P6SM SKC 
     FM260200 VRB04KT P6SM SKC 
     FM260500 25008KT P6SM FEW140 SCT250 
     FM261800 27012KT P6SM SCT140 BKN200